sensor_id;sensor_type;location;lat;lon;timestamp;P1;durP1;ratioP1;P2;durP2;ratioP2
24715;SDS011;12822;50.124;8.678;2023-02-01T00:01:54;7.95;;;3.70;;
24715;SDS011;12822;50.124;8.678;2023-02-01T00:04:20;5.55;;;3.80;;
24715;SDS011;12822;50.124;8.678;2023-02-01T00:06:46;4.80;;;3.67;;
24715;SDS011;12822;50.124;8.678;2023-02-01T00:09:12;6.65;;;3.92;;
24715;SDS011;12822;50.124;8.678;2023-02-01T00:11:38;7.75;;;4.20;;
24715;SDS011;12822;50.124;8.678;2023-02-01T00:14:05;7.35;;;4.53;;
24715;SDS011;12822;50.124;8.678;2023-02-01T00:16:31;8.75;;;3.92;;
24715;SDS011;12822;50.124;8.678;2023-02-01T00:19:04;6.40;;;3.85;;
24715;SDS011;12822;50.124;8.678;2023-02-01T00:21:31;9.52;;;4.05;;
24715;SDS011;12822;50.124;8.678;2023-02-01T00:23:57;13.35;;;4.00;;
24715;SDS011;12822;50.124;8.678;2023-02-01T00:26:29;8.10;;;3.90;;
24715;SDS011;12822;50.124;8.678;2023-02-01T00:28:56;5.22;;;3.50;;
24715;SDS011;12822;50.124;8.678;2023-02-01T00:31:22;7.68;;;4.18;;
24715;SDS011;12822;50.124;8.678;2023-02-01T00:33:48;8.02;;;3.50;;
24715;SDS011;12822;50.124;8.678;2023-02-01T00:36:14;6.95;;;3.63;;
24715;SDS011;12822;50.124;8.678;2023-02-01T00:38:40;4.90;;;3.33;;
24715;SDS011;12822;50.124;8.678;2023-02-01T00:41:11;9.60;;;4.22;;
24715;SDS011;12822;50.124;8.678;2023-02-01T00:43:37;5.68;;;3.55;;
24715;SDS011;12822;50.124;8.678;2023-02-01T00:46:03;5.57;;;4.00;;
24715;SDS011;12822;50.124;8.678;2023-02-01T00:48:29;4.95;;;3.78;;
24715;SDS011;12822;50.124;8.678;2023-02-01T00:50:59;4.95;;;3.67;;
24715;SDS011;12822;50.124;8.678;2023-02-01T00:53:26;6.32;;;3.70;;
24715;SDS011;12822;50.124;8.678;2023-02-01T00:55:52;7.53;;;3.90;;
24715;SDS011;12822;50.124;8.678;2023-02-01T00:58:17;7.38;;;3.75;;
24715;SDS011;12822;50.124;8.678;2023-02-01T01:00:43;9.25;;;3.75;;
24715;SDS011;12822;50.124;8.678;2023-02-01T01:03:11;7.43;;;4.10;;
24715;SDS011;12822;50.124;8.678;2023-02-01T01:05:46;5.57;;;3.95;;
24715;SDS011;12822;50.124;8.678;2023-02-01T01:08:12;9.73;;;4.50;;
24715;SDS011;12822;50.124;8.678;2023-02-01T01:10:38;11.02;;;4.88;;
24715;SDS011;12822;50.124;8.678;2023-02-01T01:13:05;8.57;;;4.80;;
24715;SDS011;12822;50.124;8.678;2023-02-01T01:15:32;7.88;;;5.38;;
24715;SDS011;12822;50.124;8.678;2023-02-01T01:18:00;8.70;;;5.07;;
24715;SDS011;12822;50.124;8.678;2023-02-01T01:20:26;10.05;;;4.90;;
24715;SDS011;12822;50.124;8.678;2023-02-01T01:22:52;9.50;;;5.47;;
24715;SDS011;12822;50.124;8.678;2023-02-01T01:25:18;9.32;;;4.75;;
24715;SDS011;12822;50.124;8.678;2023-02-01T01:27:44;8.23;;;5.10;;
24715;SDS011;12822;50.124;8.678;2023-02-01T01:30:10;10.30;;;5.13;;
24715;SDS011;12822;50.124;8.678;2023-02-01T01:32:36;10.05;;;5.28;;
24715;SDS011;12822;50.124;8.678;2023-02-01T01:35:02;9.98;;;5.28;;
24715;SDS011;12822;50.124;8.678;2023-02-01T01:37:28;9.00;;;4.72;;
24715;SDS011;12822;50.124;8.678;2023-02-01T01:39:54;11.38;;;5.25;;
24715;SDS011;12822;50.124;8.678;2023-02-01T01:42:20;6.97;;;4.72;;
24715;SDS011;12822;50.124;8.678;2023-02-01T01:44:56;9.68;;;4.90;;
24715;SDS011;12822;50.124;8.678;2023-02-01T01:47:22;11.60;;;5.60;;
24715;SDS011;12822;50.124;8.678;2023-02-01T01:49:49;10.55;;;5.78;;
24715;SDS011;12822;50.124;8.678;2023-02-01T01:52:15;8.18;;;5.40;;
24715;SDS011;12822;50.124;8.678;2023-02-01T01:54:42;10.43;;;5.50;;
24715;SDS011;12822;50.124;8.678;2023-02-01T01:57:11;9.60;;;6.00;;
24715;SDS011;12822;50.124;8.678;2023-02-01T01:59:40;7.10;;;5.37;;
24715;SDS011;12822;50.124;8.678;2023-02-01T02:02:07;6.47;;;5.15;;
24715;SDS011;12822;50.124;8.678;2023-02-01T02:04:33;10.77;;;6.10;;
24715;SDS011;12822;50.124;8.678;2023-02-01T02:07:01;14.25;;;5.45;;
24715;SDS011;12822;50.124;8.678;2023-02-01T02:09:28;12.05;;;6.32;;
24715;SDS011;12822;50.124;8.678;2023-02-01T02:11:54;10.63;;;5.65;;
24715;SDS011;12822;50.124;8.678;2023-02-01T02:14:20;9.95;;;6.32;;
24715;SDS011;12822;50.124;8.678;2023-02-01T02:27:18;12.30;;;7.00;;
24715;SDS011;12822;50.124;8.678;2023-02-01T02:32:23;9.27;;;6.47;;
24715;SDS011;12822;50.124;8.678;2023-02-01T02:34:57;8.75;;;6.50;;
24715;SDS011;12822;50.124;8.678;2023-02-01T02:37:29;9.10;;;6.22;;
24715;SDS011;12822;50.124;8.678;2023-02-01T02:40:25;11.43;;;6.38;;
24715;SDS011;12822;50.124;8.678;2023-02-01T02:48:25;12.07;;;7.07;;
24715;SDS011;12822;50.124;8.678;2023-02-01T02:51:01;12.20;;;7.40;;
24715;SDS011;12822;50.124;8.678;2023-02-01T02:54:09;13.40;;;6.93;;
24715;SDS011;12822;50.124;8.678;2023-02-01T02:56:55;13.02;;;7.05;;
24715;SDS011;12822;50.124;8.678;2023-02-01T02:59:41;12.75;;;7.55;;
24715;SDS011;12822;50.124;8.678;2023-02-01T03:02:27;10.55;;;7.43;;
24715;SDS011;12822;50.124;8.678;2023-02-01T03:05:13;17.80;;;7.57;;
24715;SDS011;12822;50.124;8.678;2023-02-01T03:10:10;15.38;;;7.63;;
24715;SDS011;12822;50.124;8.678;2023-02-01T03:12:41;13.30;;;7.47;;
24715;SDS011;12822;50.124;8.678;2023-02-01T03:15:20;12.82;;;7.50;;
24715;SDS011;12822;50.124;8.678;2023-02-01T03:17:47;13.13;;;8.50;;
24715;SDS011;12822;50.124;8.678;2023-02-01T03:20:14;11.73;;;6.97;;
24715;SDS011;12822;50.124;8.678;2023-02-01T03:22:42;10.80;;;7.47;;
24715;SDS011;12822;50.124;8.678;2023-02-01T03:25:17;18.23;;;7.72;;
24715;SDS011;12822;50.124;8.678;2023-02-01T03:28:06;14.05;;;7.88;;
24715;SDS011;12822;50.124;8.678;2023-02-01T03:30:31;14.88;;;7.65;;
24715;SDS011;12822;50.124;8.678;2023-02-01T03:32:59;11.82;;;7.20;;
24715;SDS011;12822;50.124;8.678;2023-02-01T03:37:56;12.13;;;7.00;;
24715;SDS011;12822;50.124;8.678;2023-02-01T03:40:25;11.63;;;6.90;;
24715;SDS011;12822;50.124;8.678;2023-02-01T03:42:53;15.35;;;7.07;;
24715;SDS011;12822;50.124;8.678;2023-02-01T03:47:48;12.02;;;5.53;;
24715;SDS011;12822;50.124;8.678;2023-02-01T03:50:18;15.98;;;6.53;;
24715;SDS011;12822;50.124;8.678;2023-02-01T03:52:53;11.07;;;6.20;;
24715;SDS011;12822;50.124;8.678;2023-02-01T03:55:22;9.60;;;5.72;;
24715;SDS011;12822;50.124;8.678;2023-02-01T03:58:11;10.30;;;5.85;;
24715;SDS011;12822;50.124;8.678;2023-02-01T04:00:35;11.40;;;5.25;;
24715;SDS011;12822;50.124;8.678;2023-02-01T04:03:01;10.60;;;6.30;;
24715;SDS011;12822;50.124;8.678;2023-02-01T04:05:28;11.35;;;5.88;;
24715;SDS011;12822;50.124;8.678;2023-02-01T04:07:55;10.20;;;6.03;;
24715;SDS011;12822;50.124;8.678;2023-02-01T04:10:21;10.43;;;5.70;;
24715;SDS011;12822;50.124;8.678;2023-02-01T04:12:47;11.57;;;6.38;;
24715;SDS011;12822;50.124;8.678;2023-02-01T04:15:13;14.48;;;6.45;;
24715;SDS011;12822;50.124;8.678;2023-02-01T04:17:39;11.15;;;5.82;;
24715;SDS011;12822;50.124;8.678;2023-02-01T04:20:05;12.80;;;6.25;;
24715;SDS011;12822;50.124;8.678;2023-02-01T04:22:31;12.18;;;6.43;;
24715;SDS011;12822;50.124;8.678;2023-02-01T04:24:57;11.15;;;6.07;;
24715;SDS011;12822;50.124;8.678;2023-02-01T04:27:23;17.42;;;6.47;;
24715;SDS011;12822;50.124;8.678;2023-02-01T04:29:49;12.32;;;6.20;;
24715;SDS011;12822;50.124;8.678;2023-02-01T04:32:16;11.48;;;6.68;;
24715;SDS011;12822;50.124;8.678;2023-02-01T04:34:42;11.05;;;6.10;;
24715;SDS011;12822;50.124;8.678;2023-02-01T04:37:08;12.90;;;6.68;;
24715;SDS011;12822;50.124;8.678;2023-02-01T04:39:34;11.77;;;5.88;;
24715;SDS011;12822;50.124;8.678;2023-02-01T04:42:00;12.23;;;6.53;;
24715;SDS011;12822;50.124;8.678;2023-02-01T04:44:26;12.95;;;6.05;;
24715;SDS011;12822;50.124;8.678;2023-02-01T04:46:52;12.35;;;5.85;;
24715;SDS011;12822;50.124;8.678;2023-02-01T04:49:18;10.63;;;6.35;;
24715;SDS011;12822;50.124;8.678;2023-02-01T04:51:46;13.25;;;6.43;;
24715;SDS011;12822;50.124;8.678;2023-02-01T04:54:12;13.02;;;5.82;;
24715;SDS011;12822;50.124;8.678;2023-02-01T04:56:38;15.40;;;6.25;;
24715;SDS011;12822;50.124;8.678;2023-02-01T04:59:04;10.45;;;6.43;;
24715;SDS011;12822;50.124;8.678;2023-02-01T05:01:30;13.95;;;6.38;;
24715;SDS011;12822;50.124;8.678;2023-02-01T05:03:56;16.13;;;6.53;;
24715;SDS011;12822;50.124;8.678;2023-02-01T05:06:22;10.70;;;6.88;;
24715;SDS011;12822;50.124;8.678;2023-02-01T05:08:49;12.55;;;6.32;;
24715;SDS011;12822;50.124;8.678;2023-02-01T05:11:15;14.02;;;6.93;;
24715;SDS011;12822;50.124;8.678;2023-02-01T05:14:00;14.90;;;6.80;;
24715;SDS011;12822;50.124;8.678;2023-02-01T05:16:26;19.90;;;6.93;;
24715;SDS011;12822;50.124;8.678;2023-02-01T05:18:52;22.98;;;6.75;;
24715;SDS011;12822;50.124;8.678;2023-02-01T05:21:19;21.60;;;6.72;;
24715;SDS011;12822;50.124;8.678;2023-02-01T05:23:45;16.40;;;7.15;;
24715;SDS011;12822;50.124;8.678;2023-02-01T05:26:29;13.20;;;5.70;;
24715;SDS011;12822;50.124;8.678;2023-02-01T05:28:55;11.73;;;5.93;;
24715;SDS011;12822;50.124;8.678;2023-02-01T05:31:22;18.77;;;5.72;;
24715;SDS011;12822;50.124;8.678;2023-02-01T05:33:48;16.63;;;6.03;;
24715;SDS011;12822;50.124;8.678;2023-02-01T05:36:14;12.63;;;5.32;;
24715;SDS011;12822;50.124;8.678;2023-02-01T05:38:40;13.13;;;5.65;;
24715;SDS011;12822;50.124;8.678;2023-02-01T05:41:06;13.70;;;6.03;;
24715;SDS011;12822;50.124;8.678;2023-02-01T05:43:32;15.68;;;5.15;;
24715;SDS011;12822;50.124;8.678;2023-02-01T05:45:58;11.15;;;5.13;;
24715;SDS011;12822;50.124;8.678;2023-02-01T05:48:24;14.73;;;5.18;;
24715;SDS011;12822;50.124;8.678;2023-02-01T05:50:50;16.55;;;5.00;;
24715;SDS011;12822;50.124;8.678;2023-02-01T05:53:16;14.85;;;5.00;;
24715;SDS011;12822;50.124;8.678;2023-02-01T05:55:42;12.30;;;4.97;;
24715;SDS011;12822;50.124;8.678;2023-02-01T05:58:08;15.02;;;4.50;;
24715;SDS011;12822;50.124;8.678;2023-02-01T06:03:33;11.32;;;4.20;;
24715;SDS011;12822;50.124;8.678;2023-02-01T06:05:59;13.77;;;4.10;;
24715;SDS011;12822;50.124;8.678;2023-02-01T06:08:26;14.65;;;4.20;;
24715;SDS011;12822;50.124;8.678;2023-02-01T06:11:02;19.75;;;5.57;;
24715;SDS011;12822;50.124;8.678;2023-02-01T06:13:28;19.85;;;4.72;;
24715;SDS011;12822;50.124;8.678;2023-02-01T06:15:55;12.15;;;4.50;;
24715;SDS011;12822;50.124;8.678;2023-02-01T06:18:22;11.75;;;4.43;;
24715;SDS011;12822;50.124;8.678;2023-02-01T06:20:51;14.60;;;4.10;;
24715;SDS011;12822;50.124;8.678;2023-02-01T06:23:18;18.70;;;4.85;;
24715;SDS011;12822;50.124;8.678;2023-02-01T06:25:44;16.02;;;3.90;;
24715;SDS011;12822;50.124;8.678;2023-02-01T06:28:10;14.43;;;4.30;;
24715;SDS011;12822;50.124;8.678;2023-02-01T06:30:36;14.85;;;4.75;;
24715;SDS011;12822;50.124;8.678;2023-02-01T06:33:02;16.15;;;3.90;;
24715;SDS011;12822;50.124;8.678;2023-02-01T06:35:28;18.45;;;4.18;;
24715;SDS011;12822;50.124;8.678;2023-02-01T06:37:54;18.50;;;4.80;;
24715;SDS011;12822;50.124;8.678;2023-02-01T06:40:20;18.63;;;4.07;;
24715;SDS011;12822;50.124;8.678;2023-02-01T06:42:47;17.13;;;3.90;;
24715;SDS011;12822;50.124;8.678;2023-02-01T06:45:14;13.88;;;3.97;;
24715;SDS011;12822;50.124;8.678;2023-02-01T06:47:40;17.20;;;4.50;;
24715;SDS011;12822;50.124;8.678;2023-02-01T06:50:07;22.05;;;5.53;;
24715;SDS011;12822;50.124;8.678;2023-02-01T06:52:33;25.77;;;5.10;;
24715;SDS011;12822;50.124;8.678;2023-02-01T06:55:01;26.67;;;5.32;;
24715;SDS011;12822;50.124;8.678;2023-02-01T06:57:30;16.48;;;4.78;;
24715;SDS011;12822;50.124;8.678;2023-02-01T06:59:58;21.75;;;4.35;;
24715;SDS011;12822;50.124;8.678;2023-02-01T07:02:24;16.52;;;4.07;;
24715;SDS011;12822;50.124;8.678;2023-02-01T07:04:50;26.20;;;5.10;;
24715;SDS011;12822;50.124;8.678;2023-02-01T07:07:16;22.17;;;5.63;;
24715;SDS011;12822;50.124;8.678;2023-02-01T07:09:44;23.25;;;4.80;;
24715;SDS011;12822;50.124;8.678;2023-02-01T07:12:10;16.23;;;4.35;;
24715;SDS011;12822;50.124;8.678;2023-02-01T07:14:36;18.33;;;4.72;;
24715;SDS011;12822;50.124;8.678;2023-02-01T07:17:02;22.52;;;4.30;;
24715;SDS011;12822;50.124;8.678;2023-02-01T07:19:28;15.15;;;4.13;;
24715;SDS011;12822;50.124;8.678;2023-02-01T07:21:54;21.13;;;4.47;;
24715;SDS011;12822;50.124;8.678;2023-02-01T07:24:20;28.20;;;5.03;;
24715;SDS011;12822;50.124;8.678;2023-02-01T07:26:46;14.07;;;3.70;;
24715;SDS011;12822;50.124;8.678;2023-02-01T07:29:13;22.75;;;4.28;;
24715;SDS011;12822;50.124;8.678;2023-02-01T07:31:39;20.58;;;4.00;;
24715;SDS011;12822;50.124;8.678;2023-02-01T07:34:05;17.23;;;4.03;;
24715;SDS011;12822;50.124;8.678;2023-02-01T07:36:31;22.20;;;3.92;;
24715;SDS011;12822;50.124;8.678;2023-02-01T07:38:59;20.75;;;4.03;;
24715;SDS011;12822;50.124;8.678;2023-02-01T07:41:25;19.90;;;4.28;;
24715;SDS011;12822;50.124;8.678;2023-02-01T07:43:57;21.20;;;4.00;;
24715;SDS011;12822;50.124;8.678;2023-02-01T07:46:30;19.90;;;4.18;;
24715;SDS011;12822;50.124;8.678;2023-02-01T07:48:56;18.05;;;3.78;;
24715;SDS011;12822;50.124;8.678;2023-02-01T07:51:22;18.45;;;3.50;;
24715;SDS011;12822;50.124;8.678;2023-02-01T07:53:48;19.10;;;4.43;;
24715;SDS011;12822;50.124;8.678;2023-02-01T07:56:15;16.52;;;4.18;;
24715;SDS011;12822;50.124;8.678;2023-02-01T07:58:42;13.65;;;3.33;;
24715;SDS011;12822;50.124;8.678;2023-02-01T08:01:17;19.40;;;3.90;;
24715;SDS011;12822;50.124;8.678;2023-02-01T08:03:53;17.58;;;3.53;;
24715;SDS011;12822;50.124;8.678;2023-02-01T08:06:20;22.42;;;3.97;;
24715;SDS011;12822;50.124;8.678;2023-02-01T08:08:47;16.50;;;3.70;;
24715;SDS011;12822;50.124;8.678;2023-02-01T08:11:13;18.20;;;3.90;;
24715;SDS011;12822;50.124;8.678;2023-02-01T08:13:40;19.63;;;3.85;;
24715;SDS011;12822;50.124;8.678;2023-02-01T08:16:06;19.65;;;3.60;;
24715;SDS011;12822;50.124;8.678;2023-02-01T08:18:33;15.25;;;3.08;;
24715;SDS011;12822;50.124;8.678;2023-02-01T08:21:06;21.42;;;3.78;;
24715;SDS011;12822;50.124;8.678;2023-02-01T08:23:34;18.23;;;4.05;;
24715;SDS011;12822;50.124;8.678;2023-02-01T08:26:04;26.90;;;3.75;;
24715;SDS011;12822;50.124;8.678;2023-02-01T08:28:30;17.93;;;4.07;;
24715;SDS011;12822;50.124;8.678;2023-02-01T08:30:57;16.52;;;3.65;;
24715;SDS011;12822;50.124;8.678;2023-02-01T08:33:23;21.00;;;3.80;;
24715;SDS011;12822;50.124;8.678;2023-02-01T08:35:49;24.70;;;4.20;;
24715;SDS011;12822;50.124;8.678;2023-02-01T08:38:15;18.02;;;3.70;;
24715;SDS011;12822;50.124;8.678;2023-02-01T08:40:41;19.23;;;3.55;;
24715;SDS011;12822;50.124;8.678;2023-02-01T08:43:07;16.40;;;3.45;;
24715;SDS011;12822;50.124;8.678;2023-02-01T08:45:33;27.85;;;4.47;;
24715;SDS011;12822;50.124;8.678;2023-02-01T08:47:59;16.48;;;3.63;;
24715;SDS011;12822;50.124;8.678;2023-02-01T08:50:25;25.98;;;4.40;;
24715;SDS011;12822;50.124;8.678;2023-02-01T08:52:52;21.65;;;3.47;;
24715;SDS011;12822;50.124;8.678;2023-02-01T08:55:18;22.92;;;4.22;;
24715;SDS011;12822;50.124;8.678;2023-02-01T08:57:44;15.43;;;3.65;;
24715;SDS011;12822;50.124;8.678;2023-02-01T09:00:12;19.23;;;4.03;;
24715;SDS011;12822;50.124;8.678;2023-02-01T09:02:39;17.70;;;4.00;;
24715;SDS011;12822;50.124;8.678;2023-02-01T09:05:05;19.70;;;3.50;;
24715;SDS011;12822;50.124;8.678;2023-02-01T09:07:32;22.20;;;4.13;;
24715;SDS011;12822;50.124;8.678;2023-02-01T09:09:58;18.13;;;3.92;;
24715;SDS011;12822;50.124;8.678;2023-02-01T09:12:26;23.10;;;4.22;;
24715;SDS011;12822;50.124;8.678;2023-02-01T09:14:53;18.85;;;3.72;;
24715;SDS011;12822;50.124;8.678;2023-02-01T09:17:19;18.67;;;4.32;;
24715;SDS011;12822;50.124;8.678;2023-02-01T09:19:45;18.60;;;3.58;;
24715;SDS011;12822;50.124;8.678;2023-02-01T09:22:11;17.05;;;3.42;;
24715;SDS011;12822;50.124;8.678;2023-02-01T09:24:37;16.02;;;3.10;;
24715;SDS011;12822;50.124;8.678;2023-02-01T09:27:03;20.90;;;3.65;;
24715;SDS011;12822;50.124;8.678;2023-02-01T09:29:29;18.38;;;3.53;;
24715;SDS011;12822;50.124;8.678;2023-02-01T09:31:55;22.80;;;3.90;;
24715;SDS011;12822;50.124;8.678;2023-02-01T09:34:21;11.88;;;2.92;;
24715;SDS011;12822;50.124;8.678;2023-02-01T09:36:50;18.15;;;3.40;;
24715;SDS011;12822;50.124;8.678;2023-02-01T09:39:16;17.30;;;3.10;;
24715;SDS011;12822;50.124;8.678;2023-02-01T09:46:41;19.35;;;3.65;;
24715;SDS011;12822;50.124;8.678;2023-02-01T09:49:12;14.35;;;3.13;;
24715;SDS011;12822;50.124;8.678;2023-02-01T09:51:43;16.63;;;3.33;;
24715;SDS011;12822;50.124;8.678;2023-02-01T09:56:39;26.38;;;3.58;;
24715;SDS011;12822;50.124;8.678;2023-02-01T10:01:35;21.33;;;3.30;;
24715;SDS011;12822;50.124;8.678;2023-02-01T10:04:03;18.13;;;2.72;;
24715;SDS011;12822;50.124;8.678;2023-02-01T10:06:33;16.65;;;3.00;;
24715;SDS011;12822;50.124;8.678;2023-02-01T10:09:06;18.10;;;3.60;;
24715;SDS011;12822;50.124;8.678;2023-02-01T10:17:08;16.65;;;3.55;;
24715;SDS011;12822;50.124;8.678;2023-02-01T10:22:12;16.83;;;3.47;;
24715;SDS011;12822;50.124;8.678;2023-02-01T10:24:49;15.98;;;3.63;;
24715;SDS011;12822;50.124;8.678;2023-02-01T10:27:35;12.00;;;2.80;;
24715;SDS011;12822;50.124;8.678;2023-02-01T10:30:22;19.92;;;4.50;;
24715;SDS011;12822;50.124;8.678;2023-02-01T10:32:50;15.98;;;3.13;;
24715;SDS011;12822;50.124;8.678;2023-02-01T10:35:20;12.35;;;2.92;;
24715;SDS011;12822;50.124;8.678;2023-02-01T10:37:48;20.85;;;3.42;;
24715;SDS011;12822;50.124;8.678;2023-02-01T10:40:17;19.67;;;3.35;;
24715;SDS011;12822;50.124;8.678;2023-02-01T10:42:44;18.48;;;3.20;;
24715;SDS011;12822;50.124;8.678;2023-02-01T10:45:22;19.05;;;3.67;;
24715;SDS011;12822;50.124;8.678;2023-02-01T10:47:49;16.15;;;3.28;;
24715;SDS011;12822;50.124;8.678;2023-02-01T10:52:50;23.77;;;3.78;;
24715;SDS011;12822;50.124;8.678;2023-02-01T10:55:35;18.75;;;3.67;;
24715;SDS011;12822;50.124;8.678;2023-02-01T10:58:25;23.33;;;2.80;;
24715;SDS011;12822;50.124;8.678;2023-02-01T11:00:58;17.75;;;3.80;;
24715;SDS011;12822;50.124;8.678;2023-02-01T11:03:36;20.75;;;2.95;;
24715;SDS011;12822;50.124;8.678;2023-02-01T11:06:03;21.98;;;3.35;;
24715;SDS011;12822;50.124;8.678;2023-02-01T11:08:34;18.00;;;3.40;;
24715;SDS011;12822;50.124;8.678;2023-02-01T11:11:07;26.48;;;3.90;;
24715;SDS011;12822;50.124;8.678;2023-02-01T11:13:36;17.25;;;2.90;;
24715;SDS011;12822;50.124;8.678;2023-02-01T11:16:03;16.00;;;3.63;;
24715;SDS011;12822;50.124;8.678;2023-02-01T11:18:30;17.63;;;3.75;;
24715;SDS011;12822;50.124;8.678;2023-02-01T11:20:58;17.20;;;3.03;;
24715;SDS011;12822;50.124;8.678;2023-02-01T11:23:25;18.67;;;3.60;;
24715;SDS011;12822;50.124;8.678;2023-02-01T11:25:56;23.35;;;4.70;;
24715;SDS011;12822;50.124;8.678;2023-02-01T11:28:26;12.10;;;2.93;;
24715;SDS011;12822;50.124;8.678;2023-02-01T11:30:56;14.35;;;3.13;;
24715;SDS011;12822;50.124;8.678;2023-02-01T11:33:25;20.13;;;3.17;;
24715;SDS011;12822;50.124;8.678;2023-02-01T11:35:55;23.17;;;3.57;;
24715;SDS011;12822;50.124;8.678;2023-02-01T11:38:28;19.52;;;3.08;;
24715;SDS011;12822;50.124;8.678;2023-02-01T11:40:55;20.20;;;4.00;;
24715;SDS011;12822;50.124;8.678;2023-02-01T11:43:27;15.05;;;3.60;;
24715;SDS011;12822;50.124;8.678;2023-02-01T11:48:20;18.55;;;3.90;;
24715;SDS011;12822;50.124;8.678;2023-02-01T11:53:38;12.93;;;3.67;;
24715;SDS011;12822;50.124;8.678;2023-02-01T12:01:38;25.35;;;3.95;;
24715;SDS011;12822;50.124;8.678;2023-02-01T12:14:38;17.92;;;3.28;;
24715;SDS011;12822;50.124;8.678;2023-02-01T12:20:06;19.30;;;3.30;;
24715;SDS011;12822;50.124;8.678;2023-02-01T12:22:46;11.23;;;2.80;;
24715;SDS011;12822;50.124;8.678;2023-02-01T12:28:09;21.15;;;3.30;;
24715;SDS011;12822;50.124;8.678;2023-02-01T12:30:54;19.63;;;3.55;;
24715;SDS011;12822;50.124;8.678;2023-02-01T12:41:02;22.40;;;3.40;;
24715;SDS011;12822;50.124;8.678;2023-02-01T12:43:47;12.88;;;3.20;;
24715;SDS011;12822;50.124;8.678;2023-02-01T12:46:50;14.20;;;3.20;;
24715;SDS011;12822;50.124;8.678;2023-02-01T12:51:43;30.60;;;4.20;;
24715;SDS011;12822;50.124;8.678;2023-02-01T12:54:17;19.50;;;2.90;;
24715;SDS011;12822;50.124;8.678;2023-02-01T12:56:46;19.58;;;4.10;;
24715;SDS011;12822;50.124;8.678;2023-02-01T13:01:45;18.73;;;3.58;;
24715;SDS011;12822;50.124;8.678;2023-02-01T13:04:17;21.02;;;3.72;;
24715;SDS011;12822;50.124;8.678;2023-02-01T13:06:46;21.67;;;3.47;;
24715;SDS011;12822;50.124;8.678;2023-02-01T13:11:43;28.65;;;3.97;;
24715;SDS011;12822;50.124;8.678;2023-02-01T13:14:23;23.88;;;3.30;;
24715;SDS011;12822;50.124;8.678;2023-02-01T13:16:52;11.73;;;3.05;;
24715;SDS011;12822;50.124;8.678;2023-02-01T13:19:25;21.42;;;3.55;;
24715;SDS011;12822;50.124;8.678;2023-02-01T13:21:54;20.40;;;3.90;;
24715;SDS011;12822;50.124;8.678;2023-02-01T13:26:47;18.05;;;3.08;;
24715;SDS011;12822;50.124;8.678;2023-02-01T13:29:13;15.43;;;3.78;;
24715;SDS011;12822;50.124;8.678;2023-02-01T13:39:44;18.77;;;3.58;;
24715;SDS011;12822;50.124;8.678;2023-02-01T13:44:39;14.98;;;3.10;;
24715;SDS011;12822;50.124;8.678;2023-02-01T13:49:41;12.57;;;2.45;;
24715;SDS011;12822;50.124;8.678;2023-02-01T13:52:17;20.02;;;2.85;;
24715;SDS011;12822;50.124;8.678;2023-02-01T13:54:48;15.52;;;3.83;;
24715;SDS011;12822;50.124;8.678;2023-02-01T13:57:30;19.67;;;3.35;;
24715;SDS011;12822;50.124;8.678;2023-02-01T14:00:45;17.60;;;3.20;;
24715;SDS011;12822;50.124;8.678;2023-02-01T14:02:48;16.80;;;3.17;;
24715;SDS011;12822;50.124;8.678;2023-02-01T14:29:01;10.98;;;2.78;;
24715;SDS011;12822;50.124;8.678;2023-02-01T14:31:47;17.25;;;3.78;;
24715;SDS011;12822;50.124;8.678;2023-02-01T14:34:18;12.60;;;2.67;;
24715;SDS011;12822;50.124;8.678;2023-02-01T14:36:56;17.20;;;2.90;;
24715;SDS011;12822;50.124;8.678;2023-02-01T14:39:27;16.30;;;2.58;;
24715;SDS011;12822;50.124;8.678;2023-02-01T14:41:55;11.93;;;2.83;;
24715;SDS011;12822;50.124;8.678;2023-02-01T14:44:23;18.17;;;3.22;;
24715;SDS011;12822;50.124;8.678;2023-02-01T14:50:17;16.35;;;2.97;;
24715;SDS011;12822;50.124;8.678;2023-02-01T14:52:29;12.05;;;2.22;;
24715;SDS011;12822;50.124;8.678;2023-02-01T14:54:56;14.38;;;2.47;;
24715;SDS011;12822;50.124;8.678;2023-02-01T14:57:24;12.57;;;2.60;;
24715;SDS011;12822;50.124;8.678;2023-02-01T14:59:53;15.73;;;2.45;;
24715;SDS011;12822;50.124;8.678;2023-02-01T15:02:23;12.87;;;2.23;;
24715;SDS011;12822;50.124;8.678;2023-02-01T15:04:53;21.13;;;3.13;;
24715;SDS011;12822;50.124;8.678;2023-02-01T15:07:20;13.95;;;2.40;;
24715;SDS011;12822;50.124;8.678;2023-02-01T15:09:47;16.63;;;2.65;;
24715;SDS011;12822;50.124;8.678;2023-02-01T15:12:18;15.93;;;2.60;;
24715;SDS011;12822;50.124;8.678;2023-02-01T15:17:33;20.42;;;2.78;;
24715;SDS011;12822;50.124;8.678;2023-02-01T15:20:01;17.55;;;2.78;;
24715;SDS011;12822;50.124;8.678;2023-02-01T15:22:28;13.60;;;2.63;;
24715;SDS011;12822;50.124;8.678;2023-02-01T15:24:56;17.83;;;2.72;;
24715;SDS011;12822;50.124;8.678;2023-02-01T15:27:23;17.90;;;2.80;;
24715;SDS011;12822;50.124;8.678;2023-02-01T15:29:49;20.90;;;2.65;;
24715;SDS011;12822;50.124;8.678;2023-02-01T15:32:31;17.88;;;2.45;;
24715;SDS011;12822;50.124;8.678;2023-02-01T15:34:58;17.42;;;2.28;;
24715;SDS011;12822;50.124;8.678;2023-02-01T15:37:25;15.05;;;3.03;;
24715;SDS011;12822;50.124;8.678;2023-02-01T15:40:05;15.95;;;2.97;;
24715;SDS011;12822;50.124;8.678;2023-02-01T15:42:32;16.65;;;2.95;;
24715;SDS011;12822;50.124;8.678;2023-02-01T15:44:58;12.63;;;2.10;;
24715;SDS011;12822;50.124;8.678;2023-02-01T15:47:25;12.77;;;2.17;;
24715;SDS011;12822;50.124;8.678;2023-02-01T15:49:53;18.83;;;4.28;;
24715;SDS011;12822;50.124;8.678;2023-02-01T15:52:35;12.02;;;2.83;;
24715;SDS011;12822;50.124;8.678;2023-02-01T15:57:34;20.70;;;2.90;;
24715;SDS011;12822;50.124;8.678;2023-02-01T16:00:03;16.30;;;2.90;;
24715;SDS011;12822;50.124;8.678;2023-02-01T16:02:36;16.95;;;2.40;;
24715;SDS011;12822;50.124;8.678;2023-02-01T16:05:05;11.50;;;2.03;;
24715;SDS011;12822;50.124;8.678;2023-02-01T16:07:32;13.77;;;2.58;;
24715;SDS011;12822;50.124;8.678;2023-02-01T16:10:00;13.18;;;2.55;;
24715;SDS011;12822;50.124;8.678;2023-02-01T16:15:06;15.20;;;2.40;;
24715;SDS011;12822;50.124;8.678;2023-02-01T16:17:32;13.02;;;2.90;;
24715;SDS011;12822;50.124;8.678;2023-02-01T16:19:58;16.73;;;2.60;;
24715;SDS011;12822;50.124;8.678;2023-02-01T16:22:24;11.18;;;2.00;;
24715;SDS011;12822;50.124;8.678;2023-02-01T16:24:50;18.13;;;3.58;;
24715;SDS011;12822;50.124;8.678;2023-02-01T16:27:16;11.77;;;2.70;;
24715;SDS011;12822;50.124;8.678;2023-02-01T16:29:42;14.45;;;2.70;;
24715;SDS011;12822;50.124;8.678;2023-02-01T16:32:19;10.50;;;2.88;;
24715;SDS011;12822;50.124;8.678;2023-02-01T16:34:46;11.73;;;2.30;;
24715;SDS011;12822;50.124;8.678;2023-02-01T16:37:13;14.27;;;2.47;;
24715;SDS011;12822;50.124;8.678;2023-02-01T16:39:41;15.27;;;2.58;;
24715;SDS011;12822;50.124;8.678;2023-02-01T16:42:14;14.45;;;2.25;;
24715;SDS011;12822;50.124;8.678;2023-02-01T16:44:40;13.90;;;2.67;;
24715;SDS011;12822;50.124;8.678;2023-02-01T16:47:16;17.70;;;2.50;;
24715;SDS011;12822;50.124;8.678;2023-02-01T16:49:43;15.88;;;2.92;;
24715;SDS011;12822;50.124;8.678;2023-02-01T16:52:13;13.48;;;2.28;;
24715;SDS011;12822;50.124;8.678;2023-02-01T16:54:40;13.83;;;2.47;;
24715;SDS011;12822;50.124;8.678;2023-02-01T16:57:10;11.30;;;2.20;;
24715;SDS011;12822;50.124;8.678;2023-02-01T16:59:36;9.75;;;2.30;;
24715;SDS011;12822;50.124;8.678;2023-02-01T17:02:02;12.02;;;2.70;;
24715;SDS011;12822;50.124;8.678;2023-02-01T17:04:28;13.52;;;2.78;;
24715;SDS011;12822;50.124;8.678;2023-02-01T17:06:54;15.10;;;2.58;;
24715;SDS011;12822;50.124;8.678;2023-02-01T17:09:21;10.48;;;2.50;;